Time;durP1;ratioP1;P1;durP2;ratioP2;P2;SDS_P1;SDS_P2;PMS_P1;PMS_P2;Temp;Humidity;BMP_temperature;BMP_pressure;BME280_temperature;BME280_humidity;BME280_pressure;Samples;Min_cycle;Max_cycle;Signal;HPM_P1;HPM_P2
2021/05/21 00:00:25;;;;;;;4.80;2.20;;;12.10;99.90;;;;;;4953633;29;20886;-54
2021/05/21 00:02:50;;;;;;;4.85;2.20;;;12.00;99.90;;;;;;4954559;29;20911;-54
2021/05/21 00:05:16;;;;;;;5.10;2.30;;;12.00;99.90;;;;;;4953628;29;20389;-55
2021/05/21 00:07:42;;;;;;;6.75;2.00;;;12.00;99.90;;;;;;4954526;29;20698;-55
2021/05/21 00:10:08;;;;;;;4.40;2.00;;;12.10;99.90;;;;;;4954896;29;20870;-54
2021/05/21 00:12:33;;;;;;;5.22;1.90;;;12.10;99.90;;;;;;4953668;29;20684;-54
2021/05/21 00:14:59;;;;;;;7.73;2.40;;;12.10;99.90;;;;;;4954229;29;20945;-54
2021/05/21 00:17:25;;;;;;;4.28;1.90;;;12.10;99.90;;;;;;4953421;29;20396;-53
2021/05/21 00:19:50;;;;;;;6.20;2.10;;;12.20;99.90;;;;;;4954106;29;20754;-54
2021/05/21 00:22:16;;;;;;;5.43;2.20;;;12.20;99.90;;;;;;4953847;29;20390;-54
2021/05/21 00:24:42;;;;;;;5.30;2.13;;;12.20;99.90;;;;;;4953030;29;20723;-54
2021/05/21 00:27:08;;;;;;;4.87;2.10;;;12.20;99.90;;;;;;4953126;29;20377;-54
2021/05/21 00:29:33;;;;;;;6.18;1.90;;;12.20;99.90;;;;;;4953145;29;20406;-54
2021/05/21 00:31:59;;;;;;;4.93;2.00;;;12.20;99.90;;;;;;4953681;28;20924;-53
2021/05/21 00:34:25;;;;;;;4.57;2.10;;;12.30;99.90;;;;;;4952422;29;20405;-54
2021/05/21 00:36:51;;;;;;;4.17;1.60;;;12.30;99.90;;;;;;4954009;29;20874;-53
2021/05/21 00:39:16;;;;;;;4.75;1.85;;;12.40;99.90;;;;;;4953278;29;20393;-54
2021/05/21 00:41:42;;;;;;;6.40;2.00;;;12.40;99.90;;;;;;4953985;29;20485;-53
2021/05/21 00:44:08;;;;;;;4.23;1.90;;;12.40;99.90;;;;;;4954078;29;20386;-54
2021/05/21 00:46:33;;;;;;;4.72;1.60;;;12.30;99.90;;;;;;4953021;29;20392;-54
2021/05/21 00:48:59;;;;;;;4.60;1.87;;;12.30;99.90;;;;;;4953920;29;20894;-53
2021/05/21 00:51:25;;;;;;;4.10;1.70;;;12.30;99.90;;;;;;4953053;29;20953;-54
2021/05/21 00:53:52;;;;;;;5.63;2.00;;;12.30;99.90;;;;;;4953525;29;20878;-54
2021/05/21 00:56:17;;;;;;;4.80;2.10;;;12.30;99.90;;;;;;4953009;29;20866;-54
2021/05/21 00:58:43;;;;;;;5.10;2.40;;;12.20;99.90;;;;;;4953757;29;20465;-54
2021/05/21 01:01:09;;;;;;;5.80;2.50;;;12.20;99.90;;;;;;4953329;29;20402;-53
2021/05/21 01:03:39;;;;;;;4.57;1.90;;;12.20;99.90;;;;;;4952782;29;20382;-55
2021/05/21 01:06:06;;;;;;;4.32;1.80;;;12.20;99.90;;;;;;4953630;29;20402;-53
2021/05/21 01:08:33;;;;;;;4.80;1.90;;;12.30;99.90;;;;;;4952659;29;20481;-53
2021/05/21 01:10:59;;;;;;;6.28;1.80;;;12.30;99.90;;;;;;4953541;29;20438;-54
2021/05/21 01:13:25;;;;;;;4.53;1.70;;;12.30;99.90;;;;;;4953027;29;20394;-54
2021/05/21 01:15:50;;;;;;;5.60;1.70;;;12.20;99.90;;;;;;4953346;29;20390;-54
2021/05/21 01:18:16;;;;;;;6.10;1.80;;;12.20;99.90;;;;;;4952283;29;20470;-55
2021/05/21 01:20:42;;;;;;;4.88;1.88;;;12.20;99.90;;;;;;4936205;29;20435;-54
2021/05/21 01:23:08;;;;;;;6.10;1.80;;;12.20;99.90;;;;;;4952972;29;20397;-53
2021/05/21 01:25:34;;;;;;;5.18;1.83;;;12.30;99.90;;;;;;4952405;29;20526;-53
2021/05/21 01:28:00;;;;;;;4.70;1.70;;;12.30;99.90;;;;;;4953373;29;20506;-53
2021/05/21 01:30:27;;;;;;;5.50;1.80;;;12.40;99.90;;;;;;4934825;29;20512;-54
2021/05/21 01:32:54;;;;;;;4.20;1.70;;;12.30;99.90;;;;;;4952931;29;20429;-54
2021/05/21 01:35:21;;;;;;;4.13;1.70;;;12.30;99.90;;;;;;4952360;29;20909;-53
2021/05/21 01:37:49;;;;;;;4.10;1.60;;;12.30;99.90;;;;;;4952910;29;20400;-54
2021/05/21 01:40:15;;;;;;;4.72;2.25;;;12.20;99.90;;;;;;4952178;29;20529;-66
2021/05/21 01:42:42;;;;;;;4.22;1.80;;;12.20;99.90;;;;;;4952453;29;20473;-53
2021/05/21 01:45:09;;;;;;;5.00;1.80;;;12.20;99.90;;;;;;4952180;28;20401;-54
2021/05/21 01:47:35;;;;;;;5.50;2.00;;;12.10;99.90;;;;;;4951821;29;20456;-53
2021/05/21 01:50:02;;;;;;;4.68;1.70;;;12.20;99.90;;;;;;4952857;29;20440;-54
2021/05/21 01:52:28;;;;;;;5.00;2.10;;;12.20;99.90;;;;;;4950324;29;20410;-54
2021/05/21 01:54:54;;;;;;;4.70;1.80;;;12.20;99.90;;;;;;4952695;29;20742;-54
2021/05/21 01:57:19;;;;;;;4.00;1.80;;;12.30;99.90;;;;;;4951905;29;20874;-54
2021/05/21 01:59:45;;;;;;;5.40;1.90;;;12.20;99.90;;;;;;4952642;29;20464;-54
2021/05/21 02:02:11;;;;;;;5.50;1.90;;;12.20;99.90;;;;;;4952567;29;20874;-53
2021/05/21 02:04:39;;;;;;;5.22;2.00;;;12.20;99.90;;;;;;4951708;29;20394;-63
2021/05/21 02:07:06;;;;;;;4.50;1.80;;;12.20;99.90;;;;;;4952593;29;20415;-54
2021/05/21 02:09:53;;;;;;;4.55;1.80;;;12.20;99.90;;;;;;4951677;29;20394;-54
2021/05/21 02:12:20;;;;;;;4.60;1.70;;;12.20;99.90;;;;;;4951526;29;20473;-54
2021/05/21 02:14:45;;;;;;;4.88;1.83;;;12.10;99.90;;;;;;4952281;29;20394;-53
2021/05/21 02:17:11;;;;;;;4.60;2.00;;;12.10;99.90;;;;;;4952202;29;20397;-53
2021/05/21 02:19:37;;;;;;;5.03;2.00;;;12.10;99.90;;;;;;4934384;29;20426;-53
2021/05/21 02:22:03;;;;;;;4.70;2.20;;;12.10;99.90;;;;;;4952412;29;20394;-54
2021/05/21 02:24:29;;;;;;;4.68;1.90;;;12.10;99.90;;;;;;4951365;29;20390;-57
2021/05/21 02:26:55;;;;;;;5.00;1.80;;;12.00;99.90;;;;;;4952313;29;20418;-53
2021/05/21 02:29:20;;;;;;;4.27;1.83;;;11.90;99.90;;;;;;4951358;28;20445;-54
2021/05/21 02:31:46;;;;;;;6.25;2.08;;;11.90;99.90;;;;;;4951968;29;20414;-54
2021/05/21 02:34:12;;;;;;;4.50;1.90;;;11.90;99.90;;;;;;4952004;29;20456;-54
2021/05/21 02:36:37;;;;;;;5.60;1.88;;;12.00;99.90;;;;;;4951484;29;20382;-54
2021/05/21 02:39:04;;;;;;;4.50;1.90;;;12.00;99.90;;;;;;4951906;29;20392;-54
2021/05/21 02:41:30;;;;;;;4.60;2.10;;;12.10;99.90;;;;;;4951056;29;20421;-54
2021/05/21 02:43:55;;;;;;;4.50;1.90;;;12.10;99.90;;;;;;4952180;29;20810;-54
2021/05/21 02:46:21;;;;;;;5.30;2.17;;;12.00;99.90;;;;;;4950967;29;20756;-54
2021/05/21 02:48:47;;;;;;;4.07;1.40;;;12.00;99.90;;;;;;4951686;29;20429;-54
2021/05/21 02:51:12;;;;;;;4.23;1.73;;;12.00;99.90;;;;;;4951824;29;20477;-54
2021/05/21 02:53:38;;;;;;;6.60;2.30;;;11.90;99.90;;;;;;4951168;29;20390;-54
2021/05/21 02:56:04;;;;;;;5.43;2.00;;;12.00;99.90;;;;;;4952999;28;20749;-54
2021/05/21 02:58:30;;;;;;;5.10;1.70;;;12.00;99.90;;;;;;4954947;29;20452;-54
2021/05/21 03:00:55;;;;;;;4.30;1.70;;;12.10;99.90;;;;;;4955570;29;20389;-52
2021/05/21 03:03:21;;;;;;;4.20;1.70;;;12.10;99.90;;;;;;4955324;29;20448;-53
2021/05/21 03:05:47;;;;;;;4.70;1.80;;;12.10;99.90;;;;;;4955479;29;20429;-53
2021/05/21 03:08:12;;;;;;;3.80;1.50;;;12.00;99.90;;;;;;4955475;29;20412;-53
2021/05/21 03:10:38;;;;;;;5.10;1.97;;;12.10;99.90;;;;;;4955126;29;20389;-53
2021/05/21 03:13:04;;;;;;;4.20;1.70;;;12.30;99.90;;;;;;4955691;29;20496;-53
2021/05/21 03:15:30;;;;;;;5.20;2.17;;;12.20;99.90;;;;;;4937477;29;20414;-53
2021/05/21 03:17:56;;;;;;;4.30;1.80;;;12.20;99.90;;;;;;4955559;29;20378;-54
2021/05/21 03:20:22;;;;;;;4.10;1.50;;;12.20;99.90;;;;;;4954848;29;20386;-53
2021/05/21 03:22:48;;;;;;;4.75;1.80;;;12.20;99.90;;;;;;4955424;29;20404;-53
2021/05/21 03:25:14;;;;;;;3.80;1.55;;;12.20;99.90;;;;;;4955488;29;20465;-56
2021/05/21 03:27:39;;;;;;;4.78;1.92;;;12.20;99.90;;;;;;4954777;29;20385;-53
2021/05/21 03:30:07;;;;;;;6.00;1.90;;;12.20;99.90;;;;;;4934723;29;20482;-53
2021/05/21 03:32:33;;;;;;;5.00;1.80;;;12.20;99.90;;;;;;4935305;29;20418;-54
2021/05/21 03:34:58;;;;;;;3.97;1.60;;;12.20;99.90;;;;;;4935954;29;20450;-53
2021/05/21 03:37:25;;;;;;;4.88;1.75;;;12.00;99.90;;;;;;4935170;29;20391;-53
2021/05/21 03:39:51;;;;;;;4.18;1.73;;;12.00;99.90;;;;;;4935861;29;20392;-56
2021/05/21 03:42:17;;;;;;;7.43;1.80;;;11.90;99.90;;;;;;4934275;29;20403;-65
2021/05/21 03:44:43;;;;;;;4.53;1.80;;;11.90;99.90;;;;;;4935679;29;20446;-53
2021/05/21 03:47:09;;;;;;;5.47;1.77;;;11.90;99.90;;;;;;4935959;29;20400;-57
2021/05/21 03:49:34;;;;;;;5.50;1.92;;;11.90;99.90;;;;;;4935047;29;20423;-53
2021/05/21 03:52:00;;;;;;;4.13;1.70;;;11.80;99.90;;;;;;4935510;29;20784;-53
2021/05/21 03:54:26;;;;;;;4.10;1.65;;;11.70;99.90;;;;;;4933831;29;20880;-53
2021/05/21 03:56:52;;;;;;;5.33;1.90;;;11.70;99.90;;;;;;4935751;29;20398;-53
2021/05/21 03:59:18;;;;;;;7.65;1.85;;;11.70;99.90;;;;;;4933337;29;20486;-66
2021/05/21 04:01:51;;;;;;;4.65;1.50;;;11.80;99.90;;;;;;4935613;29;20894;-53
2021/05/21 04:04:16;;;;;;;5.03;1.90;;;11.80;99.90;;;;;;4935048;29;20392;-66
2021/05/21 04:06:42;;;;;;;4.43;1.60;;;11.90;99.90;;;;;;4934614;29;20447;-53
2021/05/21 04:09:08;;;;;;;4.20;1.60;;;11.80;99.90;;;;;;4934228;29;20764;-53
2021/05/21 04:11:37;;;;;;;4.40;1.60;;;11.90;99.90;;;;;;4934626;29;20478;-53
2021/05/21 04:14:05;;;;;;;4.90;1.80;;;11.90;99.90;;;;;;4935417;29;20470;-53
2021/05/21 04:16:31;;;;;;;4.60;1.50;;;11.90;99.90;;;;;;4934328;29;20411;-54
2021/05/21 04:18:57;;;;;;;4.17;1.50;;;11.90;99.90;;;;;;4935514;29;20379;-52
2021/05/21 04:21:23;;;;;;;4.60;1.70;;;12.00;99.90;;;;;;4934401;29;20406;-53
2021/05/21 04:23:49;;;;;;;5.68;1.70;;;12.10;99.90;;;;;;4933905;29;20395;-53
2021/05/21 04:26:16;;;;;;;7.57;1.60;;;12.10;99.90;;;;;;4934824;29;20400;-66
2021/05/21 04:28:42;;;;;;;5.43;1.45;;;12.20;99.90;;;;;;4939296;29;20453;-53
2021/05/21 04:31:08;;;;;;;4.50;1.42;;;12.30;99.90;;;;;;4954199;29;20382;-53
2021/05/21 04:33:34;;;;;;;5.35;1.45;;;12.40;99.90;;;;;;4953483;29;20390;-53
2021/05/21 04:36:00;;;;;;;5.57;1.30;;;12.40;99.90;;;;;;4954024;29;20396;-52
2021/05/21 04:38:26;;;;;;;4.00;1.60;;;12.50;99.90;;;;;;4952083;29;20876;-57
2021/05/21 04:40:52;;;;;;;4.50;1.70;;;12.50;99.90;;;;;;4953932;29;20425;-53
2021/05/21 04:43:26;;;;;;;3.90;1.30;;;12.70;99.90;;;;;;4953354;29;20425;-66
2021/05/21 04:45:51;;;;;;;4.07;1.50;;;12.80;99.90;;;;;;4953752;29;20457;-53
2021/05/21 04:48:17;;;;;;;4.00;1.38;;;12.80;99.90;;;;;;4953592;29;20854;-66
2021/05/21 04:50:44;;;;;;;4.80;1.40;;;12.90;99.90;;;;;;4953636;29;20746;-53
2021/05/21 04:53:10;;;;;;;4.03;1.60;;;12.90;99.90;;;;;;4953731;29;20401;-53
2021/05/21 04:55:36;;;;;;;4.63;1.70;;;13.00;99.90;;;;;;4952884;29;20893;-53
2021/05/21 04:58:01;;;;;;;4.27;1.40;;;13.10;99.90;;;;;;4953526;29;20787;-54
2021/05/21 05:00:27;;;;;;;5.70;1.73;;;13.10;99.90;;;;;;4952892;29;20394;-54
2021/05/21 05:02:53;;;;;;;4.80;1.30;;;13.10;99.90;;;;;;4953747;29;20468;-53
2021/05/21 05:05:18;;;;;;;4.45;1.50;;;13.10;99.90;;;;;;4952840;29;20405;-66
2021/05/21 05:07:45;;;;;;;4.18;1.48;;;13.20;99.90;;;;;;4952789;29;20553;-53
2021/05/21 05:10:11;;;;;;;4.50;1.40;;;13.30;99.90;;;;;;4953502;29;20919;-52
2021/05/21 05:12:38;;;;;;;5.30;1.30;;;13.30;99.90;;;;;;4952499;29;20429;-53
2021/05/21 05:15:05;;;;;;;5.50;1.30;;;13.40;99.90;;;;;;4953029;29;20480;-53
2021/05/21 05:17:30;;;;;;;5.10;1.30;;;13.50;99.90;;;;;;4952493;29;20473;-53
2021/05/21 05:19:56;;;;;;;3.85;1.10;;;13.60;99.90;;;;;;4952727;28;20527;-53
2021/05/21 05:22:21;;;;;;;4.22;1.30;;;13.70;99.90;;;;;;4952408;29;20401;-53
2021/05/21 05:24:47;;;;;;;6.40;1.80;;;13.80;99.90;;;;;;4953107;29;20398;-54
2021/05/21 05:27:13;;;;;;;3.60;1.25;;;13.90;99.90;;;;;;4952893;29;20401;-53
2021/05/21 05:29:38;;;;;;;5.10;1.30;;;13.80;99.90;;;;;;4951618;29;20652;-53
2021/05/21 05:32:04;;;;;;;3.97;1.10;;;13.80;99.90;;;;;;4953089;29;20530;-53
2021/05/21 05:34:30;;;;;;;4.32;1.10;;;13.90;99.90;;;;;;4951899;29;20900;-53
2021/05/21 05:36:56;;;;;;;3.60;1.15;;;13.90;99.90;;;;;;4952892;29;20494;-53
2021/05/21 05:39:22;;;;;;;6.13;1.33;;;13.90;99.90;;;;;;4952264;29;20933;-54
2021/05/21 05:41:49;;;;;;;4.22;1.30;;;14.10;99.90;;;;;;4952869;29;20457;-53
2021/05/21 05:44:16;;;;;;;4.03;1.05;;;14.00;99.90;;;;;;4959245;28;20905;-53
2021/05/21 05:46:42;;;;;;;4.35;1.33;;;14.10;99.90;;;;;;4960682;28;20874;-53
2021/05/21 05:49:07;;;;;;;5.10;1.20;;;14.10;99.90;;;;;;4962600;28;20399;-53
2021/05/21 05:51:33;;;;;;;5.00;1.20;;;14.10;99.90;;;;;;4960148;28;20416;-53
2021/05/21 05:53:59;;;;;;;4.30;1.10;;;14.30;99.90;;;;;;4943365;28;20832;-53
2021/05/21 05:56:24;;;;;;;4.33;1.33;;;14.20;99.90;;;;;;4953643;28;20464;-53
2021/05/21 05:58:50;;;;;;;5.90;1.65;;;14.30;99.90;;;;;;4971330;28;20428;-61
2021/05/21 06:01:16;;;;;;;3.95;1.25;;;14.30;99.90;;;;;;4966272;28;20933;-59
2021/05/21 06:03:41;;;;;;;3.70;1.20;;;13.80;99.90;;;;;;4950842;28;20926;-53
2021/05/21 06:06:07;;;;;;;4.18;1.33;;;14.40;99.90;;;;;;4951945;29;20390;-53
2021/05/21 06:08:34;;;;;;;4.93;1.30;;;14.50;99.90;;;;;;4950540;29;20397;-53
2021/05/21 06:11:00;;;;;;;5.18;1.30;;;14.50;99.90;;;;;;4966642;28;20531;-53
2021/05/21 06:13:27;;;;;;;3.70;1.10;;;14.60;99.90;;;;;;4962868;28;20887;-53
2021/05/21 06:15:53;;;;;;;4.00;1.20;;;14.70;99.90;;;;;;4951994;29;20402;-53
2021/05/21 06:18:19;;;;;;;4.97;1.05;;;14.60;99.90;;;;;;4951511;29;20448;-67
2021/05/21 06:20:46;;;;;;;5.22;1.20;;;14.70;99.90;;;;;;4951814;29;20440;-53
2021/05/21 06:23:12;;;;;;;4.30;1.25;;;14.70;99.90;;;;;;4951562;29;20386;-53
2021/05/21 06:28:09;;;;;;;5.90;1.30;;;14.80;99.90;;;;;;4966926;28;20943;-53
2021/05/21 06:30:35;;;;;;;4.77;1.30;;;14.60;99.90;;;;;;4965101;28;20400;-53
2021/05/21 06:33:01;;;;;;;4.80;1.20;;;15.00;99.90;;;;;;4961139;28;20418;-53
2021/05/21 06:35:27;;;;;;;4.07;1.20;;;15.10;99.90;;;;;;4967411;28;20398;-53
2021/05/21 06:37:53;;;;;;;4.43;1.10;;;15.20;99.90;;;;;;4970821;28;20388;-53
2021/05/21 06:40:19;;;;;;;5.80;1.10;;;15.20;99.90;;;;;;4967737;28;20398;-64
2021/05/21 06:42:45;;;;;;;3.90;1.15;;;15.20;99.90;;;;;;4959357;28;20729;-56
2021/05/21 06:45:11;;;;;;;5.80;1.80;;;15.20;99.90;;;;;;4959187;28;20405;-53
2021/05/21 06:47:37;;;;;;;5.33;1.30;;;15.30;99.90;;;;;;4956016;28;21241;-53
2021/05/21 06:50:03;;;;;;;4.95;1.27;;;15.30;99.90;;;;;;4964481;28;20398;-62
2021/05/21 06:52:29;;;;;;;4.28;1.10;;;15.30;99.90;;;;;;4958226;28;20417;-53
2021/05/21 06:54:55;;;;;;;4.40;1.40;;;15.30;99.90;;;;;;4959024;28;20415;-53
2021/05/21 06:57:22;;;;;;;4.50;1.50;;;15.30;99.90;;;;;;4960405;28;20387;-66
2021/05/21 06:59:48;;;;;;;5.50;1.13;;;15.40;99.90;;;;;;4960713;28;20417;-53
2021/05/21 07:02:13;;;;;;;4.25;1.23;;;15.50;99.90;;;;;;4959114;28;20413;-59
2021/05/21 07:04:39;;;;;;;5.67;1.00;;;15.60;99.90;;;;;;4959862;28;20393;-53
2021/05/21 07:07:05;;;;;;;5.03;1.20;;;15.70;99.90;;;;;;4962981;28;20390;-53
2021/05/21 07:09:30;;;;;;;4.90;1.30;;;15.80;99.90;;;;;;4960117;28;20459;-56
2021/05/21 07:11:56;;;;;;;3.83;1.10;;;15.70;99.90;;;;;;4958916;28;20417;-55
2021/05/21 07:14:21;;;;;;;4.10;1.48;;;15.70;99.90;;;;;;4958857;28;20480;-65
2021/05/21 07:16:47;;;;;;;4.20;1.10;;;15.70;99.90;;;;;;4962275;28;20881;-53
2021/05/21 07:19:17;;;;;;;5.20;1.37;;;15.70;99.90;;;;;;4959737;28;20397;-52
2021/05/21 07:21:43;;;;;;;4.13;1.20;;;15.80;99.90;;;;;;4956053;28;20652;-57
2021/05/21 07:24:08;;;;;;;4.75;1.30;;;15.80;99.90;;;;;;4956123;28;20897;-54
2021/05/21 07:26:34;;;;;;;6.70;1.30;;;15.80;99.90;;;;;;4961523;28;20397;-54
2021/05/21 07:29:00;;;;;;;3.60;1.10;;;15.90;99.90;;;;;;4956007;28;20420;-54
2021/05/21 07:31:27;;;;;;;3.78;1.10;;;15.90;99.90;;;;;;4958891;28;20409;-54
2021/05/21 07:33:59;;;;;;;4.75;1.15;;;15.80;99.90;;;;;;4960017;28;20896;-54
2021/05/21 07:36:28;;;;;;;7.00;1.27;;;15.90;99.90;;;;;;4950888;28;20473;-54
2021/05/21 07:38:56;;;;;;;5.60;1.30;;;15.90;99.90;;;;;;4959665;28;20392;-55
2021/05/21 07:41:24;;;;;;;4.90;1.10;;;15.90;99.90;;;;;;4959850;28;20406;-65
2021/05/21 07:43:50;;;;;;;5.32;1.40;;;15.80;99.90;;;;;;4962224;28;20435;-54
2021/05/21 07:46:16;;;;;;;4.75;1.33;;;15.80;99.90;;;;;;4958180;28;20405;-53
2021/05/21 07:48:42;;;;;;;4.90;1.17;;;15.80;99.90;;;;;;4961766;28;20471;-53
2021/05/21 07:51:08;;;;;;;4.40;1.23;;;15.70;99.90;;;;;;4961965;28;20389;-54
2021/05/21 07:53:34;;;;;;;4.22;1.20;;;15.80;99.90;;;;;;4955963;28;20829;-55
2021/05/21 07:56:04;;;;;;;6.45;1.20;;;15.70;99.90;;;;;;4963190;28;20390;-53
2021/05/21 07:58:30;;;;;;;4.75;1.30;;;15.60;99.90;;;;;;4958956;28;20411;-54
2021/05/21 08:00:57;;;;;;;4.80;1.30;;;15.70;99.90;;;;;;4964221;28;20394;-54
2021/05/21 08:03:23;;;;;;;3.70;1.10;;;15.60;99.90;;;;;;4953579;29;20398;-65
2021/05/21 08:05:48;;;;;;;4.00;1.25;;;15.60;99.90;;;;;;4969841;28;20400;-57
2021/05/21 08:08:23;;;;;;;5.60;1.20;;;15.60;99.90;;;;;;4936926;29;20754;-54
2021/05/21 08:10:55;;;;;;;4.90;1.27;;;15.70;99.90;;;;;;4953784;29;21130;-56
2021/05/21 08:13:21;;;;;;;4.45;1.30;;;15.80;99.90;;;;;;4954146;29;20417;-64
2021/05/21 08:15:47;;;;;;;4.50;1.10;;;15.80;99.90;;;;;;4953713;29;20397;-54
2021/05/21 08:18:13;;;;;;;4.90;1.20;;;15.80;99.90;;;;;;4953661;29;20386;-53
2021/05/21 08:20:39;;;;;;;4.35;1.40;;;15.90;99.90;;;;;;4954441;28;20445;-54
2021/05/21 08:23:05;;;;;;;4.20;1.35;;;16.00;99.90;;;;;;4959823;28;20405;-59
2021/05/21 08:25:31;;;;;;;4.20;1.30;;;16.00;99.90;;;;;;4969195;28;20392;-54
2021/05/21 08:27:57;;;;;;;6.72;1.38;;;15.80;99.90;;;;;;4958477;28;20396;-54
2021/05/21 08:30:24;;;;;;;4.50;1.42;;;15.80;99.90;;;;;;4964869;28;20429;-65
2021/05/21 08:32:51;;;;;;;3.88;1.20;;;15.90;99.90;;;;;;4964881;28;20412;-54
2021/05/21 08:35:18;;;;;;;6.00;1.40;;;15.90;99.90;;;;;;4957897;28;20456;-54
2021/05/21 08:37:44;;;;;;;4.17;1.20;;;16.00;99.90;;;;;;4955011;28;20386;-54
2021/05/21 08:40:11;;;;;;;5.63;1.40;;;16.10;99.90;;;;;;4966588;28;20473;-54
2021/05/21 08:42:39;;;;;;;4.30;1.27;;;16.10;99.90;;;;;;4961457;28;20448;-55
2021/05/21 08:45:09;;;;;;;4.70;1.30;;;16.10;99.90;;;;;;4961891;28;20432;-54
2021/05/21 08:47:36;;;;;;;5.03;1.50;;;16.10;99.90;;;;;;4955691;28;21087;-54
2021/05/21 08:50:12;;;;;;;4.60;1.38;;;16.10;99.90;;;;;;4963291;28;20542;-57
2021/05/21 08:52:38;;;;;;;4.50;1.30;;;16.10;99.90;;;;;;4954756;28;20414;-54
2021/05/21 08:55:07;;;;;;;4.40;1.30;;;16.10;99.90;;;;;;4963001;28;20783;-54
2021/05/21 08:57:33;;;;;;;4.18;1.30;;;16.00;99.90;;;;;;4959327;28;20393;-57
2021/05/21 08:59:59;;;;;;;4.60;1.30;;;16.10;99.90;;;;;;4958909;28;20912;-54
2021/05/21 09:02:26;;;;;;;4.80;1.10;;;16.00;99.90;;;;;;4958535;28;20402;-65
2021/05/21 09:04:58;;;;;;;4.60;1.20;;;15.90;99.90;;;;;;4964650;28;20419;-54
2021/05/21 09:07:32;;;;;;;4.17;1.50;;;15.90;99.90;;;;;;4950232;28;21227;-65
2021/05/21 09:10:18;;;;;;;5.90;1.40;;;16.00;99.90;;;;;;4958236;28;20395;-54
2021/05/21 09:12:49;;;;;;;9.40;1.60;;;16.00;99.90;;;;;;4965345;28;20426;-54
2021/05/21 09:15:23;;;;;;;5.15;1.60;;;16.00;99.90;;;;;;4957074;28;20406;-54
2021/05/21 09:18:03;;;;;;;5.13;1.27;;;16.00;99.90;;;;;;4953792;28;20441;-54
2021/05/21 09:20:40;;;;;;;4.87;1.20;;;16.00;99.90;;;;;;4953126;28;20952;-65
2021/05/21 09:23:07;;;;;;;5.55;1.40;;;16.00;99.90;;;;;;4955537;28;20405;-54
2021/05/21 09:25:44;;;;;;;4.45;1.20;;;16.00;99.90;;;;;;4958580;28;20400;-54
2021/05/21 09:28:32;;;;;;;4.65;1.20;;;16.00;99.90;;;;;;4960086;28;20421;-54
2021/05/21 09:31:09;;;;;;;5.05;1.38;;;16.00;99.90;;;;;;4963845;28;20868;-57
2021/05/21 09:33:36;;;;;;;6.53;1.30;;;16.00;99.90;;;;;;4963919;28;20501;-58
2021/05/21 09:36:03;;;;;;;5.10;1.17;;;16.00;99.90;;;;;;4957543;28;20394;-53
2021/05/21 09:38:47;;;;;;;4.35;1.15;;;16.20;99.90;;;;;;4942809;28;20865;-54
2021/05/21 09:41:12;;;;;;;6.80;1.10;;;16.30;99.90;;;;;;4967774;28;20410;-54
2021/05/21 09:43:38;;;;;;;4.15;0.98;;;16.40;99.90;;;;;;4960010;28;20397;-53
2021/05/21 09:46:11;;;;;;;3.87;1.00;;;16.30;99.90;;;;;;4961924;28;20417;-54
2021/05/21 09:48:37;;;;;;;5.40;1.10;;;16.90;99.90;;;;;;4960457;28;20393;-55
2021/05/21 09:51:04;;;;;;;5.97;1.10;;;16.30;99.90;;;;;;4942566;28;20885;-53
2021/05/21 09:53:33;;;;;;;8.30;1.27;;;16.20;99.90;;;;;;4943104;28;20445;-53
2021/05/21 09:56:01;;;;;;;5.10;1.30;;;16.30;99.90;;;;;;4958586;28;20783;-55
2021/05/21 09:58:35;;;;;;;3.60;1.00;;;16.20;99.90;;;;;;4959356;28;20512;-66
2021/05/21 10:01:15;;;;;;;4.05;1.08;;;16.10;99.90;;;;;;4960685;28;20400;-53
2021/05/21 10:03:49;;;;;;;3.55;0.95;;;16.00;99.90;;;;;;4960373;28;20397;-56
2021/05/21 10:06:16;;;;;;;6.63;1.30;;;15.90;99.90;;;;;;4956020;28;20394;-53
2021/05/21 10:08:44;;;;;;;3.83;1.10;;;15.90;99.90;;;;;;4960190;28;20467;-53
2021/05/21 10:11:10;;;;;;;4.43;0.98;;;15.80;99.90;;;;;;4962908;28;20778;-57
2021/05/21 10:13:37;;;;;;;3.80;1.20;;;15.90;99.90;;;;;;4959113;28;20412;-54
2021/05/21 10:16:05;;;;;;;3.70;1.10;;;16.10;99.90;;;;;;4960158;28;20474;-53
2021/05/21 10:18:34;;;;;;;4.95;1.00;;;16.00;99.90;;;;;;4955803;28;20478;-55
2021/05/21 10:21:00;;;;;;;4.20;1.10;;;15.80;99.90;;;;;;4951848;29;20456;-53
2021/05/21 10:23:34;;;;;;;5.60;1.05;;;15.70;99.90;;;;;;4951678;29;20452;-65
2021/05/21 10:26:06;;;;;;;3.70;1.00;;;15.70;99.90;;;;;;4951435;28;20406;-54
2021/05/21 10:28:33;;;;;;;5.90;1.20;;;15.50;99.90;;;;;;4950704;29;20466;-53
2021/05/21 10:31:02;;;;;;;3.60;1.08;;;15.50;99.90;;;;;;4943369;28;20401;-56
2021/05/21 10:33:33;;;;;;;3.60;1.00;;;15.60;99.90;;;;;;4952107;28;20455;-65
2021/05/21 10:36:22;;;;;;;4.88;1.08;;;15.40;99.90;;;;;;4950190;28;20872;-53
2021/05/21 10:39:16;;;;;;;4.10;1.00;;;15.60;99.90;;;;;;4963316;28;20429;-54
2021/05/21 10:41:58;;;;;;;4.80;1.10;;;15.70;99.90;;;;;;4950764;29;20402;-53
2021/05/21 10:44:26;;;;;;;3.88;0.90;;;15.60;99.90;;;;;;4952547;28;20416;-55
2021/05/21 10:47:17;;;;;;;3.80;0.93;;;15.60;99.90;;;;;;4950689;28;20394;-56
2021/05/21 10:49:52;;;;;;;3.83;1.02;;;15.70;99.90;;;;;;4965714;28;20859;-53
2021/05/21 10:52:41;;;;;;;4.50;1.00;;;15.80;99.90;;;;;;4970680;28;20415;-53
2021/05/21 10:55:07;;;;;;;4.70;1.20;;;15.60;99.90;;;;;;4970565;28;20389;-54
2021/05/21 10:57:33;;;;;;;3.67;0.95;;;15.60;99.90;;;;;;4969561;28;20388;-53
2021/05/21 11:00:02;;;;;;;4.00;0.90;;;15.60;99.90;;;;;;4970246;28;20481;-54
2021/05/21 11:02:43;;;;;;;4.10;0.80;;;15.80;99.90;;;;;;4953328;28;20398;-65
2021/05/21 11:05:27;;;;;;;5.23;1.10;;;15.80;99.90;;;;;;4951237;29;20481;-60
2021/05/21 11:07:58;;;;;;;3.40;0.90;;;15.70;99.90;;;;;;4951460;29;20394;-60
2021/05/21 11:10:32;;;;;;;3.60;0.80;;;15.90;99.90;;;;;;4951314;29;20390;-53
2021/05/21 11:13:05;;;;;;;4.30;1.10;;;16.10;99.90;;;;;;4950809;29;20405;-56
2021/05/21 11:15:34;;;;;;;4.20;1.05;;;16.00;99.90;;;;;;4950393;29;20882;-54
2021/05/21 11:18:29;;;;;;;5.50;1.20;;;16.00;99.90;;;;;;4953673;28;20882;-53
2021/05/21 11:21:17;;;;;;;5.80;1.00;;;16.10;99.90;;;;;;4964987;28;20396;-53
2021/05/21 11:23:46;;;;;;;6.43;1.20;;;16.20;99.90;;;;;;4964698;28;20607;-55
2021/05/21 11:26:16;;;;;;;4.03;1.00;;;16.30;99.90;;;;;;4965109;28;20389;-63
2021/05/21 11:28:42;;;;;;;3.67;1.00;;;16.40;99.90;;;;;;4965189;28;20964;-56
2021/05/21 11:31:23;;;;;;;5.18;1.00;;;16.50;99.90;;;;;;4973670;28;20392;-56
2021/05/21 11:33:51;;;;;;;4.07;1.05;;;16.70;99.90;;;;;;4973640;28;20401;-54
2021/05/21 11:36:19;;;;;;;5.10;1.00;;;16.60;99.90;;;;;;4970532;28;20893;-58
2021/05/21 11:38:45;;;;;;;3.50;0.90;;;16.60;99.90;;;;;;4956513;28;20599;-54
2021/05/21 11:41:11;;;;;;;4.20;1.00;;;16.90;99.90;;;;;;4962223;28;20386;-55
2021/05/21 11:43:42;;;;;;;5.10;1.10;;;17.00;99.90;;;;;;4953777;28;20394;-57
2021/05/21 11:46:26;;;;;;;6.60;1.00;;;17.20;99.90;;;;;;4963594;28;20393;-53
2021/05/21 11:48:52;;;;;;;4.35;1.00;;;17.00;99.90;;;;;;4963905;28;20474;-53
2021/05/21 11:51:24;;;;;;;4.50;1.10;;;16.90;99.90;;;;;;4962515;28;20762;-54
2021/05/21 11:53:55;;;;;;;4.00;1.10;;;17.30;99.90;;;;;;4962669;28;20483;-53
2021/05/21 11:56:35;;;;;;;5.88;1.15;;;17.30;99.90;;;;;;4964915;28;20394;-61
2021/05/21 11:59:10;;;;;;;6.05;1.10;;;17.10;99.90;;;;;;4962493;28;20898;-54
2021/05/21 12:01:42;;;;;;;4.00;1.20;;;17.20;99.90;;;;;;4960310;28;20398;-54
2021/05/21 12:04:09;;;;;;;4.65;1.00;;;17.20;99.90;;;;;;4963620;28;20390;-54
2021/05/21 12:06:37;;;;;;;3.85;1.00;;;17.10;99.90;;;;;;4969668;28;20412;-54
2021/05/21 12:09:11;;;;;;;5.65;1.42;;;17.10;99.90;;;;;;4973815;28;20480;-54
2021/05/21 12:11:37;;;;;;;3.78;1.08;;;17.20;99.90;;;;;;4967047;28;20416;-53
2021/05/21 12:14:05;;;;;;;3.85;1.10;;;17.20;99.90;;;;;;4964590;28;20458;-54
2021/05/21 12:16:31;;;;;;;5.10;1.00;;;17.30;99.90;;;;;;4972700;28;20494;-64
2021/05/21 12:19:01;;;;;;;3.90;0.90;;;17.40;99.90;;;;;;4973389;28;20504;-54
2021/05/21 12:21:30;;;;;;;5.30;0.90;;;17.70;99.90;;;;;;4969871;28;20485;-66
2021/05/21 12:23:57;;;;;;;5.22;0.90;;;17.60;99.90;;;;;;4967647;28;20389;-56
2021/05/21 12:26:25;;;;;;;3.83;1.00;;;17.40;99.90;;;;;;4973487;28;20387;-54
2021/05/21 12:28:53;;;;;;;5.82;0.80;;;17.50;99.90;;;;;;4968875;28;20530;-54
2021/05/21 12:31:24;;;;;;;4.20;1.00;;;17.50;99.90;;;;;;4973014;28;20392;-55
2021/05/21 12:33:51;;;;;;;5.20;1.30;;;17.40;99.90;;;;;;4954797;28;20444;-55
2021/05/21 12:36:17;;;;;;;4.82;1.60;;;17.30;99.90;;;;;;4955865;28;20393;-54
2021/05/21 12:38:51;;;;;;;4.70;1.00;;;17.40;99.90;;;;;;4971863;28;20860;-54
2021/05/21 12:41:29;;;;;;;4.78;1.10;;;17.40;99.90;;;;;;4962401;28;20397;-53
2021/05/21 12:44:14;;;;;;;4.18;0.73;;;17.40;99.90;;;;;;4953138;29;20444;-60
2021/05/21 12:46:46;;;;;;;5.60;1.00;;;17.30;99.90;;;;;;4952204;28;20390;-56
2021/05/21 12:49:21;;;;;;;4.70;0.90;;;16.90;99.90;;;;;;4936099;29;20409;-54
2021/05/21 12:51:52;;;;;;;5.18;1.00;;;16.90;99.90;;;;;;4952229;29;20423;-54
2021/05/21 12:54:28;;;;;;;5.15;1.20;;;17.10;99.90;;;;;;4953491;29;20386;-54